sensor_id;sensor_type;location;lat;lon;timestamp;temperature;humidity
26964;DHT22;14521;48.148;-1.656;2022-11-11T00:03:01;18.90;98.30
26964;DHT22;14521;48.148;-1.656;2022-11-11T00:06:42;18.90;98.20
26964;DHT22;14521;48.148;-1.656;2022-11-11T00:10:29;18.90;98.20
26964;DHT22;14521;48.148;-1.656;2022-11-11T00:14:10;18.90;98.30
26964;DHT22;14521;48.148;-1.656;2022-11-11T00:17:51;18.80;98.20
26964;DHT22;14521;48.148;-1.656;2022-11-11T00:21:50;18.80;98.60
26964;DHT22;14521;48.148;-1.656;2022-11-11T00:25:31;18.90;98.20
26964;DHT22;14521;48.148;-1.656;2022-11-11T00:29:12;18.90;98.10
26964;DHT22;14521;48.148;-1.656;2022-11-11T00:32:53;18.80;98.00
26964;DHT22;14521;48.148;-1.656;2022-11-11T00:36:34;18.80;98.10
26964;DHT22;14521;48.148;-1.656;2022-11-11T00:40:15;18.80;98.00
26964;DHT22;14521;48.148;-1.656;2022-11-11T00:43:56;18.80;98.00
26964;DHT22;14521;48.148;-1.656;2022-11-11T00:47:37;18.80;97.90
26964;DHT22;14521;48.148;-1.656;2022-11-11T00:51:37;18.80;97.90
26964;DHT22;14521;48.148;-1.656;2022-11-11T00:55:18;18.80;97.90
26964;DHT22;14521;48.148;-1.656;2022-11-11T00:58:59;18.80;97.90
26964;DHT22;14521;48.148;-1.656;2022-11-11T01:02:40;18.80;97.90
26964;DHT22;14521;48.148;-1.656;2022-11-11T01:06:21;18.80;97.80
26964;DHT22;14521;48.148;-1.656;2022-11-11T01:10:03;18.80;97.80
26964;DHT22;14521;48.148;-1.656;2022-11-11T01:13:44;18.70;97.70
26964;DHT22;14521;48.148;-1.656;2022-11-11T01:17:25;18.80;97.70
26964;DHT22;14521;48.148;-1.656;2022-11-11T01:21:06;18.80;97.80
26964;DHT22;14521;48.148;-1.656;2022-11-11T01:24:47;18.70;97.70
26964;DHT22;14521;48.148;-1.656;2022-11-11T01:28:28;18.70;97.70
26964;DHT22;14521;48.148;-1.656;2022-11-11T01:32:09;18.70;97.80
26964;DHT22;14521;48.148;-1.656;2022-11-11T01:35:50;18.70;97.70
26964;DHT22;14521;48.148;-1.656;2022-11-11T01:39:31;18.70;97.70
26964;DHT22;14521;48.148;-1.656;2022-11-11T01:46:56;18.70;97.60
26964;DHT22;14521;48.148;-1.656;2022-11-11T01:50:38;18.70;97.60
26964;DHT22;14521;48.148;-1.656;2022-11-11T01:58:14;18.70;97.40
26964;DHT22;14521;48.148;-1.656;2022-11-11T02:01:55;18.70;97.40
26964;DHT22;14521;48.148;-1.656;2022-11-11T02:05:36;18.70;97.40
26964;DHT22;14521;48.148;-1.656;2022-11-11T02:09:25;18.70;97.40
26964;DHT22;14521;48.148;-1.656;2022-11-11T02:13:14;18.70;97.30
26964;DHT22;14521;48.148;-1.656;2022-11-11T02:17:14;18.70;97.30
26964;DHT22;14521;48.148;-1.656;2022-11-11T02:20:56;18.70;97.30
26964;DHT22;14521;48.148;-1.656;2022-11-11T02:24:38;18.70;97.30
26964;DHT22;14521;48.148;-1.656;2022-11-11T02:28:24;18.70;97.30
26964;DHT22;14521;48.148;-1.656;2022-11-11T02:32:05;18.70;97.30
26964;DHT22;14521;48.148;-1.656;2022-11-11T02:35:50;18.70;97.20
26964;DHT22;14521;48.148;-1.656;2022-11-11T02:39:43;18.70;97.20
26964;DHT22;14521;48.148;-1.656;2022-11-11T02:43:43;18.60;97.20
26964;DHT22;14521;48.148;-1.656;2022-11-11T02:47:25;18.60;97.10
26964;DHT22;14521;48.148;-1.656;2022-11-11T02:51:07;18.60;97.20
26964;DHT22;14521;48.148;-1.656;2022-11-11T02:54:48;18.60;97.10
26964;DHT22;14521;48.148;-1.656;2022-11-11T02:58:29;18.60;97.10
26964;DHT22;14521;48.148;-1.656;2022-11-11T03:02:11;18.60;97.10
26964;DHT22;14521;48.148;-1.656;2022-11-11T03:05:52;18.60;97.10
26964;DHT22;14521;48.148;-1.656;2022-11-11T03:09:32;18.60;97.40
26964;DHT22;14521;48.148;-1.656;2022-11-11T03:13:14;18.60;97.40
26964;DHT22;14521;48.148;-1.656;2022-11-11T03:16:55;18.60;97.00
26964;DHT22;14521;48.148;-1.656;2022-11-11T03:20:54;18.60;97.00
26964;DHT22;14521;48.148;-1.656;2022-11-11T03:25:04;18.60;96.90
26964;DHT22;14521;48.148;-1.656;2022-11-11T03:29:04;18.60;96.90
26964;DHT22;14521;48.148;-1.656;2022-11-11T03:32:45;18.60;96.90
26964;DHT22;14521;48.148;-1.656;2022-11-11T03:36:26;18.60;96.80
26964;DHT22;14521;48.148;-1.656;2022-11-11T03:40:27;18.60;96.90
26964;DHT22;14521;48.148;-1.656;2022-11-11T03:44:08;18.60;96.80
26964;DHT22;14521;48.148;-1.656;2022-11-11T03:47:49;18.60;96.80
26964;DHT22;14521;48.148;-1.656;2022-11-11T03:51:30;18.60;96.80
26964;DHT22;14521;48.148;-1.656;2022-11-11T03:55:10;18.60;96.80
26964;DHT22;14521;48.148;-1.656;2022-11-11T03:58:51;18.60;96.80
26964;DHT22;14521;48.148;-1.656;2022-11-11T04:02:32;18.60;96.80
26964;DHT22;14521;48.148;-1.656;2022-11-11T04:06:31;18.50;96.80
26964;DHT22;14521;48.148;-1.656;2022-11-11T04:10:31;18.50;96.80
26964;DHT22;14521;48.148;-1.656;2022-11-11T04:14:13;18.50;96.80
26964;DHT22;14521;48.148;-1.656;2022-11-11T04:18:12;18.50;96.80
26964;DHT22;14521;48.148;-1.656;2022-11-11T04:21:52;18.50;96.80
26964;DHT22;14521;48.148;-1.656;2022-11-11T04:25:33;18.50;96.80
26964;DHT22;14521;48.148;-1.656;2022-11-11T04:29:30;18.50;96.80
26964;DHT22;14521;48.148;-1.656;2022-11-11T04:33:10;18.50;96.80
26964;DHT22;14521;48.148;-1.656;2022-11-11T04:36:51;18.50;96.80
26964;DHT22;14521;48.148;-1.656;2022-11-11T04:40:32;18.50;96.80
26964;DHT22;14521;48.148;-1.656;2022-11-11T04:44:31;18.50;96.80
26964;DHT22;14521;48.148;-1.656;2022-11-11T04:48:30;18.50;96.70
26964;DHT22;14521;48.148;-1.656;2022-11-11T04:52:11;18.50;96.70
26964;DHT22;14521;48.148;-1.656;2022-11-11T04:56:08;18.50;96.70
26964;DHT22;14521;48.148;-1.656;2022-11-11T05:00:09;18.50;96.70
26964;DHT22;14521;48.148;-1.656;2022-11-11T05:03:50;18.50;96.80
26964;DHT22;14521;48.148;-1.656;2022-11-11T05:07:31;18.50;96.80
26964;DHT22;14521;48.148;-1.656;2022-11-11T05:11:33;18.50;96.80
26964;DHT22;14521;48.148;-1.656;2022-11-11T05:15:14;18.50;96.80
26964;DHT22;14521;48.148;-1.656;2022-11-11T05:19:14;18.50;96.80
26964;DHT22;14521;48.148;-1.656;2022-11-11T05:23:14;18.50;96.80
26964;DHT22;14521;48.148;-1.656;2022-11-11T05:26:54;18.50;96.80
26964;DHT22;14521;48.148;-1.656;2022-11-11T05:30:35;18.40;96.70
26964;DHT22;14521;48.148;-1.656;2022-11-11T05:34:20;18.50;96.90
26964;DHT22;14521;48.148;-1.656;2022-11-11T05:38:02;18.50;96.80
26964;DHT22;14521;48.148;-1.656;2022-11-11T05:42:00;18.50;96.80
26964;DHT22;14521;48.148;-1.656;2022-11-11T05:45:41;18.50;96.80
26964;DHT22;14521;48.148;-1.656;2022-11-11T05:49:23;18.50;96.80
26964;DHT22;14521;48.148;-1.656;2022-11-11T05:53:04;18.40;96.80
26964;DHT22;14521;48.148;-1.656;2022-11-11T05:56:45;18.50;96.80
26964;DHT22;14521;48.148;-1.656;2022-11-11T06:00:26;18.50;96.70
26964;DHT22;14521;48.148;-1.656;2022-11-11T06:04:07;18.50;96.70
26964;DHT22;14521;48.148;-1.656;2022-11-11T06:07:54;18.50;96.80
26964;DHT22;14521;48.148;-1.656;2022-11-11T06:11:35;18.40;96.80
26964;DHT22;14521;48.148;-1.656;2022-11-11T06:15:16;18.50;96.80
26964;DHT22;14521;48.148;-1.656;2022-11-11T06:18:57;18.50;96.80
26964;DHT22;14521;48.148;-1.656;2022-11-11T06:22:39;18.40;96.70
26964;DHT22;14521;48.148;-1.656;2022-11-11T06:26:38;18.50;96.70
26964;DHT22;14521;48.148;-1.656;2022-11-11T06:30:19;18.50;96.80
26964;DHT22;14521;48.148;-1.656;2022-11-11T06:34:20;18.40;96.70
26964;DHT22;14521;48.148;-1.656;2022-11-11T06:38:03;18.40;96.70
26964;DHT22;14521;48.148;-1.656;2022-11-11T06:41:45;18.40;96.80
26964;DHT22;14521;48.148;-1.656;2022-11-11T06:45:28;18.40;96.80
26964;DHT22;14521;48.148;-1.656;2022-11-11T06:49:09;18.40;96.80
26964;DHT22;14521;48.148;-1.656;2022-11-11T06:52:49;18.40;96.80
26964;DHT22;14521;48.148;-1.656;2022-11-11T06:56:30;18.40;96.80
26964;DHT22;14521;48.148;-1.656;2022-11-11T07:00:11;18.40;96.80
26964;DHT22;14521;48.148;-1.656;2022-11-11T07:03:52;18.40;96.80
26964;DHT22;14521;48.148;-1.656;2022-11-11T07:07:33;18.40;96.70
26964;DHT22;14521;48.148;-1.656;2022-11-11T07:11:14;18.40;96.80
26964;DHT22;14521;48.148;-1.656;2022-11-11T07:14:59;18.40;96.80
26964;DHT22;14521;48.148;-1.656;2022-11-11T07:18:39;18.40;96.80
26964;DHT22;14521;48.148;-1.656;2022-11-11T07:22:20;18.40;96.80
26964;DHT22;14521;48.148;-1.656;2022-11-11T07:26:01;18.40;96.80
26964;DHT22;14521;48.148;-1.656;2022-11-11T07:29:41;18.40;97.00
26964;DHT22;14521;48.148;-1.656;2022-11-11T07:33:22;18.40;97.50
26964;DHT22;14521;48.148;-1.656;2022-11-11T07:37:04;18.40;97.40
26964;DHT22;14521;48.148;-1.656;2022-11-11T07:40:45;18.50;97.20
26964;DHT22;14521;48.148;-1.656;2022-11-11T07:44:26;18.50;97.30
26964;DHT22;14521;48.148;-1.656;2022-11-11T07:48:06;18.50;97.40
26964;DHT22;14521;48.148;-1.656;2022-11-11T07:51:47;18.40;97.50
26964;DHT22;14521;48.148;-1.656;2022-11-11T07:55:28;18.50;97.90
26964;DHT22;14521;48.148;-1.656;2022-11-11T07:59:09;18.50;98.10
26964;DHT22;14521;48.148;-1.656;2022-11-11T08:02:50;18.60;97.80
26964;DHT22;14521;48.148;-1.656;2022-11-11T08:06:38;18.60;98.30
26964;DHT22;14521;48.148;-1.656;2022-11-11T08:10:19;18.60;98.20
26964;DHT22;14521;48.148;-1.656;2022-11-11T08:13:59;18.60;98.40
26964;DHT22;14521;48.148;-1.656;2022-11-11T08:17:40;18.60;98.40
26964;DHT22;14521;48.148;-1.656;2022-11-11T08:21:21;18.60;98.40
26964;DHT22;14521;48.148;-1.656;2022-11-11T08:25:02;18.70;98.50
26964;DHT22;14521;48.148;-1.656;2022-11-11T08:28:45;18.60;98.50
26964;DHT22;14521;48.148;-1.656;2022-11-11T08:32:26;18.70;98.50
26964;DHT22;14521;48.148;-1.656;2022-11-11T08:36:06;18.70;98.50
26964;DHT22;14521;48.148;-1.656;2022-11-11T08:39:47;18.70;98.50
26964;DHT22;14521;48.148;-1.656;2022-11-11T08:43:28;18.70;98.40
26964;DHT22;14521;48.148;-1.656;2022-11-11T08:47:16;18.70;98.50
26964;DHT22;14521;48.148;-1.656;2022-11-11T08:50:59;18.70;98.50
26964;DHT22;14521;48.148;-1.656;2022-11-11T08:54:40;18.70;98.40
26964;DHT22;14521;48.148;-1.656;2022-11-11T08:58:21;18.20;95.00
26964;DHT22;14521;48.148;-1.656;2022-11-11T09:02:02;18.10;98.50
26964;DHT22;14521;48.148;-1.656;2022-11-11T09:05:43;18.30;98.60
26964;DHT22;14521;48.148;-1.656;2022-11-11T09:09:23;18.50;97.80
26964;DHT22;14521;48.148;-1.656;2022-11-11T09:13:05;18.40;97.60
26964;DHT22;14521;48.148;-1.656;2022-11-11T09:16:46;18.40;97.60
26964;DHT22;14521;48.148;-1.656;2022-11-11T09:20:27;18.30;97.50
26964;DHT22;14521;48.148;-1.656;2022-11-11T09:24:07;18.30;97.60
26964;DHT22;14521;48.148;-1.656;2022-11-11T09:27:59;18.30;97.50
26964;DHT22;14521;48.148;-1.656;2022-11-11T09:31:40;18.40;97.60
26964;DHT22;14521;48.148;-1.656;2022-11-11T09:35:05;18.40;97.50
26964;DHT22;14521;48.148;-1.656;2022-11-11T09:38:44;18.40;97.50
26964;DHT22;14521;48.148;-1.656;2022-11-11T09:52:40;18.40;97.30
26964;DHT22;14521;48.148;-1.656;2022-11-11T09:56:14;18.40;97.30
26964;DHT22;14521;48.148;-1.656;2022-11-11T10:00:25;18.40;97.20
26964;DHT22;14521;48.148;-1.656;2022-11-11T10:04:12;18.40;97.20
26964;DHT22;14521;48.148;-1.656;2022-11-11T10:08:14;18.50;97.30
26964;DHT22;14521;48.148;-1.656;2022-11-11T10:23:59;18.40;97.10
26964;DHT22;14521;48.148;-1.656;2022-11-11T10:27:43;18.40;97.00
26964;DHT22;14521;48.148;-1.656;2022-11-11T10:31:24;18.40;97.00
26964;DHT22;14521;48.148;-1.656;2022-11-11T10:35:42;18.40;96.90
26964;DHT22;14521;48.148;-1.656;2022-11-11T10:39:31;18.40;96.90
26964;DHT22;14521;48.148;-1.656;2022-11-11T10:43:21;18.40;97.00
26964;DHT22;14521;48.148;-1.656;2022-11-11T10:51:09;18.40;96.90
26964;DHT22;14521;48.148;-1.656;2022-11-11T11:06:33;18.40;96.70
26964;DHT22;14521;48.148;-1.656;2022-11-11T11:10:22;18.40;96.70
26964;DHT22;14521;48.148;-1.656;2022-11-11T11:14:20;18.40;96.80
26964;DHT22;14521;48.148;-1.656;2022-11-11T11:18:12;18.40;96.70
26964;DHT22;14521;48.148;-1.656;2022-11-11T11:21:55;18.40;96.60
26964;DHT22;14521;48.148;-1.656;2022-11-11T11:25:36;18.40;96.70
26964;DHT22;14521;48.148;-1.656;2022-11-11T11:33:08;18.30;96.70
26964;DHT22;14521;48.148;-1.656;2022-11-11T11:36:59;18.30;96.70
26964;DHT22;14521;48.148;-1.656;2022-11-11T11:40:55;18.30;96.60
26964;DHT22;14521;48.148;-1.656;2022-11-11T11:44:37;18.30;96.70
26964;DHT22;14521;48.148;-1.656;2022-11-11T12:00:40;18.30;96.60
26964;DHT22;14521;48.148;-1.656;2022-11-11T12:16:18;18.30;96.40
26964;DHT22;14521;48.148;-1.656;2022-11-11T12:20:18;18.30;96.60
26964;DHT22;14521;48.148;-1.656;2022-11-11T12:24:27;18.40;96.60
26964;DHT22;14521;48.148;-1.656;2022-11-11T12:39:26;18.40;98.50
26964;DHT22;14521;48.148;-1.656;2022-11-11T12:43:23;18.40;98.90
26964;DHT22;14521;48.148;-1.656;2022-11-11T12:47:26;18.50;99.00
26964;DHT22;14521;48.148;-1.656;2022-11-11T12:51:31;18.50;99.10
26964;DHT22;14521;48.148;-1.656;2022-11-11T13:03:34;18.60;99.10
26964;DHT22;14521;48.148;-1.656;2022-11-11T13:15:32;18.70;99.90
26964;DHT22;14521;48.148;-1.656;2022-11-11T13:23:21;18.80;99.90
26964;DHT22;14521;48.148;-1.656;2022-11-11T13:27:34;18.80;99.90
26964;DHT22;14521;48.148;-1.656;2022-11-11T13:31:29;18.70;99.90
26964;DHT22;14521;48.148;-1.656;2022-11-11T13:39:29;18.70;99.90
26964;DHT22;14521;48.148;-1.656;2022-11-11T13:43:24;18.70;99.90
26964;DHT22;14521;48.148;-1.656;2022-11-11T13:47:13;18.80;99.90
26964;DHT22;14521;48.148;-1.656;2022-11-11T13:55:19;18.80;99.90
26964;DHT22;14521;48.148;-1.656;2022-11-11T13:59:02;18.80;99.90
26964;DHT22;14521;48.148;-1.656;2022-11-11T14:02:44;18.80;99.90
26964;DHT22;14521;48.148;-1.656;2022-11-11T14:06:28;18.80;99.90
26964;DHT22;14521;48.148;-1.656;2022-11-11T14:22:26;18.80;99.70
26964;DHT22;14521;48.148;-1.656;2022-11-11T14:26:22;18.80;99.80
26964;DHT22;14521;48.148;-1.656;2022-11-11T14:30:04;18.70;99.70
26964;DHT22;14521;48.148;-1.656;2022-11-11T14:41:48;18.60;99.40
26964;DHT22;14521;48.148;-1.656;2022-11-11T14:49:10;18.60;99.00
26964;DHT22;14521;48.148;-1.656;2022-11-11T14:53:17;18.60;98.60
26964;DHT22;14521;48.148;-1.656;2022-11-11T14:57:03;18.60;98.60
26964;DHT22;14521;48.148;-1.656;2022-11-11T15:01:01;18.70;98.60
26964;DHT22;14521;48.148;-1.656;2022-11-11T15:04:43;18.60;98.70
26964;DHT22;14521;48.148;-1.656;2022-11-11T15:08:25;18.70;98.60
26964;DHT22;14521;48.148;-1.656;2022-11-11T15:12:42;18.70;99.00
26964;DHT22;14521;48.148;-1.656;2022-11-11T15:37:09;18.60;98.70
26964;DHT22;14521;48.148;-1.656;2022-11-11T15:40:55;18.60;98.30
26964;DHT22;14521;48.148;-1.656;2022-11-11T15:44:39;18.60;98.40
26964;DHT22;14521;48.148;-1.656;2022-11-11T15:48:46;18.60;98.40
26964;DHT22;14521;48.148;-1.656;2022-11-11T15:56:10;18.50;98.30
26964;DHT22;14521;48.148;-1.656;2022-11-11T15:59:53;18.50;98.30
26964;DHT22;14521;48.148;-1.656;2022-11-11T16:03:41;18.50;97.70
26964;DHT22;14521;48.148;-1.656;2022-11-11T16:07:26;18.50;98.10
26964;DHT22;14521;48.148;-1.656;2022-11-11T16:11:12;18.60;97.70
26964;DHT22;14521;48.148;-1.656;2022-11-11T16:14:55;18.60;97.80
26964;DHT22;14521;48.148;-1.656;2022-11-11T16:18:44;18.60;97.70
26964;DHT22;14521;48.148;-1.656;2022-11-11T16:22:28;18.50;97.90
26964;DHT22;14521;48.148;-1.656;2022-11-11T16:26:11;18.50;97.90
26964;DHT22;14521;48.148;-1.656;2022-11-11T16:29:52;18.50;97.90
26964;DHT22;14521;48.148;-1.656;2022-11-11T16:33:33;18.50;97.90
26964;DHT22;14521;48.148;-1.656;2022-11-11T16:37:18;18.50;98.00
26964;DHT22;14521;48.148;-1.656;2022-11-11T16:40:59;18.50;98.00
26964;DHT22;14521;48.148;-1.656;2022-11-11T16:52:17;18.50;97.80
26964;DHT22;14521;48.148;-1.656;2022-11-11T16:55:59;18.40;97.90
26964;DHT22;14521;48.148;-1.656;2022-11-11T16:59:43;18.40;97.90
26964;DHT22;14521;48.148;-1.656;2022-11-11T17:03:27;18.40;97.80
26964;DHT22;14521;48.148;-1.656;2022-11-11T17:07:30;18.40;97.60
26964;DHT22;14521;48.148;-1.656;2022-11-11T17:15:20;18.30;97.60
26964;DHT22;14521;48.148;-1.656;2022-11-11T17:19:02;18.40;97.70
26964;DHT22;14521;48.148;-1.656;2022-11-11T17:22:52;18.30;97.70
26964;DHT22;14521;48.148;-1.656;2022-11-11T17:26:32;18.30;97.70
26964;DHT22;14521;48.148;-1.656;2022-11-11T17:30:14;18.40;97.70
26964;DHT22;14521;48.148;-1.656;2022-11-11T17:33:55;18.40;97.80
26964;DHT22;14521;48.148;-1.656;2022-11-11T17:37:36;18.40;97.90
26964;DHT22;14521;48.148;-1.656;2022-11-11T17:41:17;18.50;97.90
26964;DHT22;14521;48.148;-1.656;2022-11-11T17:44:58;18.50;98.00
26964;DHT22;14521;48.148;-1.656;2022-11-11T17:48:39;18.50;98.20
26964;DHT22;14521;48.148;-1.656;2022-11-11T17:52:20;18.60;98.20
26964;DHT22;14521;48.148;-1.656;2022-11-11T17:56:03;18.60;98.20
26964;DHT22;14521;48.148;-1.656;2022-11-11T17:59:44;18.70;98.20
26964;DHT22;14521;48.148;-1.656;2022-11-11T18:03:25;18.70;98.40
26964;DHT22;14521;48.148;-1.656;2022-11-11T18:07:07;18.70;98.70
26964;DHT22;14521;48.148;-1.656;2022-11-11T18:10:48;18.80;99.60
26964;DHT22;14521;48.148;-1.656;2022-11-11T18:14:29;18.80;99.80
26964;DHT22;14521;48.148;-1.656;2022-11-11T18:18:09;18.90;99.90
26964;DHT22;14521;48.148;-1.656;2022-11-11T18:21:50;18.90;99.90
26964;DHT22;14521;48.148;-1.656;2022-11-11T18:25:31;18.90;99.90
26964;DHT22;14521;48.148;-1.656;2022-11-11T18:29:12;18.90;99.90
26964;DHT22;14521;48.148;-1.656;2022-11-11T18:32:52;18.90;99.90
26964;DHT22;14521;48.148;-1.656;2022-11-11T18:36:33;18.90;99.90
26964;DHT22;14521;48.148;-1.656;2022-11-11T18:40:14;18.90;99.70
26964;DHT22;14521;48.148;-1.656;2022-11-11T18:43:55;18.90;99.90
26964;DHT22;14521;48.148;-1.656;2022-11-11T18:47:37;18.90;99.90
26964;DHT22;14521;48.148;-1.656;2022-11-11T18:51:18;18.80;99.40
26964;DHT22;14521;48.148;-1.656;2022-11-11T18:54:58;18.90;99.90
26964;DHT22;14521;48.148;-1.656;2022-11-11T18:58:39;18.90;99.30
26964;DHT22;14521;48.148;-1.656;2022-11-11T19:02:20;18.90;99.50
26964;DHT22;14521;48.148;-1.656;2022-11-11T19:06:06;18.90;99.40
26964;DHT22;14521;48.148;-1.656;2022-11-11T19:09:47;18.90;99.60
26964;DHT22;14521;48.148;-1.656;2022-11-11T19:13:28;18.90;99.30
26964;DHT22;14521;48.148;-1.656;2022-11-11T19:17:09;18.90;99.00
26964;DHT22;14521;48.148;-1.656;2022-11-11T19:20:50;18.90;99.00
26964;DHT22;14521;48.148;-1.656;2022-11-11T19:24:31;18.90;99.00
26964;DHT22;14521;48.148;-1.656;2022-11-11T19:28:14;18.90;98.60
26964;DHT22;14521;48.148;-1.656;2022-11-11T19:31:54;18.90;98.90
26964;DHT22;14521;48.148;-1.656;2022-11-11T19:35:35;18.90;98.70
26964;DHT22;14521;48.148;-1.656;2022-11-11T19:39:16;18.90;98.90
26964;DHT22;14521;48.148;-1.656;2022-11-11T19:42:57;18.90;99.20
26964;DHT22;14521;48.148;-1.656;2022-11-11T19:46:38;19.00;98.60
26964;DHT22;14521;48.148;-1.656;2022-11-11T19:50:18;19.10;98.80
26964;DHT22;14521;48.148;-1.656;2022-11-11T19:53:59;19.10;98.40
26964;DHT22;14521;48.148;-1.656;2022-11-11T19:57:40;19.00;98.60
26964;DHT22;14521;48.148;-1.656;2022-11-11T20:01:23;18.90;99.00
26964;DHT22;14521;48.148;-1.656;2022-11-11T20:05:04;18.90;98.80
26964;DHT22;14521;48.148;-1.656;2022-11-11T20:08:46;18.80;99.20
26964;DHT22;14521;48.148;-1.656;2022-11-11T20:12:28;18.90;98.90
26964;DHT22;14521;48.148;-1.656;2022-11-11T20:16:09;18.90;98.60
26964;DHT22;14521;48.148;-1.656;2022-11-11T20:19:50;18.90;98.20
26964;DHT22;14521;48.148;-1.656;2022-11-11T20:23:34;18.80;98.10
26964;DHT22;14521;48.148;-1.656;2022-11-11T20:27:15;18.80;98.20
26964;DHT22;14521;48.148;-1.656;2022-11-11T20:30:55;18.80;98.00
26964;DHT22;14521;48.148;-1.656;2022-11-11T20:34:36;18.80;98.60
26964;DHT22;14521;48.148;-1.656;2022-11-11T20:38:17;18.80;98.60
26964;DHT22;14521;48.148;-1.656;2022-11-11T20:41:58;18.90;98.70
26964;DHT22;14521;48.148;-1.656;2022-11-11T20:45:39;18.90;97.30
26964;DHT22;14521;48.148;-1.656;2022-11-11T20:49:20;18.80;98.10
26964;DHT22;14521;48.148;-1.656;2022-11-11T20:53:00;18.80;98.80
26964;DHT22;14521;48.148;-1.656;2022-11-11T20:56:41;18.80;98.60
26964;DHT22;14521;48.148;-1.656;2022-11-11T21:00:25;18.80;98.40
26964;DHT22;14521;48.148;-1.656;2022-11-11T21:04:05;18.80;98.30
26964;DHT22;14521;48.148;-1.656;2022-11-11T21:07:49;18.80;98.30
26964;DHT22;14521;48.148;-1.656;2022-11-11T21:11:30;18.80;98.10
26964;DHT22;14521;48.148;-1.656;2022-11-11T21:15:11;18.80;98.50
26964;DHT22;14521;48.148;-1.656;2022-11-11T21:18:53;18.80;98.60
26964;DHT22;14521;48.148;-1.656;2022-11-11T21:22:34;18.80;98.60
26964;DHT22;14521;48.148;-1.656;2022-11-11T21:26:16;18.80;98.60
26964;DHT22;14521;48.148;-1.656;2022-11-11T21:29:58;18.80;98.70
26964;DHT22;14521;48.148;-1.656;2022-11-11T21:33:38;18.80;98.70
26964;DHT22;14521;48.148;-1.656;2022-11-11T21:37:19;18.80;98.70
26964;DHT22;14521;48.148;-1.656;2022-11-11T21:41:21;18.80;98.70
26964;DHT22;14521;48.148;-1.656;2022-11-11T21:45:03;18.80;98.60
26964;DHT22;14521;48.148;-1.656;2022-11-11T21:48:44;18.80;98.50
26964;DHT22;14521;48.148;-1.656;2022-11-11T21:52:25;18.80;98.30
26964;DHT22;14521;48.148;-1.656;2022-11-11T21:56:11;18.80;98.30
26964;DHT22;14521;48.148;-1.656;2022-11-11T21:59:52;18.80;98.30
26964;DHT22;14521;48.148;-1.656;2022-11-11T22:03:39;18.80;98.10
26964;DHT22;14521;48.148;-1.656;2022-11-11T22:07:20;18.80;98.20
26964;DHT22;14521;48.148;-1.656;2022-11-11T22:11:10;18.80;98.20
26964;DHT22;14521;48.148;-1.656;2022-11-11T22:14:51;18.80;98.10
26964;DHT22;14521;48.148;-1.656;2022-11-11T22:18:34;18.80;98.00
26964;DHT22;14521;48.148;-1.656;2022-11-11T22:22:21;18.80;97.80
26964;DHT22;14521;48.148;-1.656;2022-11-11T22:26:09;18.70;97.80
26964;DHT22;14521;48.148;-1.656;2022-11-11T22:29:50;18.80;97.70
26964;DHT22;14521;48.148;-1.656;2022-11-11T22:33:30;18.70;97.70
26964;DHT22;14521;48.148;-1.656;2022-11-11T22:37:11;18.70;97.50
26964;DHT22;14521;48.148;-1.656;2022-11-11T22:40:52;18.70;97.40
26964;DHT22;14521;48.148;-1.656;2022-11-11T22:44:33;18.70;97.30
26964;DHT22;14521;48.148;-1.656;2022-11-11T22:48:14;18.70;97.30
26964;DHT22;14521;48.148;-1.656;2022-11-11T22:51:55;18.70;97.10
26964;DHT22;14521;48.148;-1.656;2022-11-11T22:55:35;18.70;97.10
26964;DHT22;14521;48.148;-1.656;2022-11-11T22:59:16;18.70;97.00
26964;DHT22;14521;48.148;-1.656;2022-11-11T23:02:57;18.60;96.90
26964;DHT22;14521;48.148;-1.656;2022-11-11T23:06:38;18.60;96.80
26964;DHT22;14521;48.148;-1.656;2022-11-11T23:10:21;18.60;96.70
26964;DHT22;14521;48.148;-1.656;2022-11-11T23:14:04;18.60;96.70
26964;DHT22;14521;48.148;-1.656;2022-11-11T23:17:45;18.50;96.70
26964;DHT22;14521;48.148;-1.656;2022-11-11T23:21:27;18.50;96.60
26964;DHT22;14521;48.148;-1.656;2022-11-11T23:25:08;18.50;96.60
26964;DHT22;14521;48.148;-1.656;2022-11-11T23:28:49;18.50;96.60
26964;DHT22;14521;48.148;-1.656;2022-11-11T23:32:31;18.50;96.90
26964;DHT22;14521;48.148;-1.656;2022-11-11T23:36:14;18.50;96.50
26964;DHT22;14521;48.148;-1.656;2022-11-11T23:39:55;18.50;96.40
26964;DHT22;14521;48.148;-1.656;2022-11-11T23:43:38;18.50;96.40
26964;DHT22;14521;48.148;-1.656;2022-11-11T23:47:19;18.40;96.30
26964;DHT22;14521;48.148;-1.656;2022-11-11T23:51:01;18.40;96.20
26964;DHT22;14521;48.148;-1.656;2022-11-11T23:54:42;18.40;96.30
26964;DHT22;14521;48.148;-1.656;2022-11-11T23:58:23;18.40;96.30
